createdAt,value
2022-09-11T00:00:52.733Z,100.00
2022-09-11T00:03:21.472Z,100.00
2022-09-11T00:05:50.520Z,100.00
2022-09-11T00:08:21.305Z,100.00
2022-09-11T00:10:49.584Z,100.00
2022-09-11T00:13:21.256Z,100.00
2022-09-11T00:15:51.337Z,100.00
2022-09-11T00:18:21.592Z,100.00
2022-09-11T00:20:52.230Z,100.00
2022-09-11T00:23:21.089Z,100.00
2022-09-11T00:25:49.262Z,100.00
2022-09-11T00:28:19.812Z,100.00
2022-09-11T00:30:48.450Z,100.00
2022-09-11T00:33:16.798Z,100.00
2022-09-11T00:35:44.659Z,100.00
2022-09-11T00:38:17.255Z,100.00
2022-09-11T00:40:46.419Z,100.00
2022-09-11T00:43:15.185Z,100.00
2022-09-11T00:45:42.847Z,100.00
2022-09-11T00:48:12.951Z,100.00
2022-09-11T00:50:44.713Z,100.00
2022-09-11T00:53:16.082Z,100.00
2022-09-11T00:55:47.578Z,100.00
2022-09-11T00:58:17.818Z,100.00
2022-09-11T01:00:46.513Z,100.00
2022-09-11T01:03:14.330Z,100.00
2022-09-11T01:05:43.712Z,100.00
2022-09-11T01:08:14.512Z,100.00
2022-09-11T01:10:52.023Z,100.00
2022-09-11T01:13:29.011Z,100.00
2022-09-11T01:16:04.152Z,100.00
2022-09-11T01:18:34.371Z,100.00
2022-09-11T01:21:14.933Z,100.00
2022-09-11T01:23:56.636Z,100.00
2022-09-11T01:26:39.247Z,100.00
2022-09-11T01:29:16.006Z,100.00
2022-09-11T01:31:47.107Z,100.00
2022-09-11T01:34:17.675Z,100.00
2022-09-11T01:36:49.575Z,100.00
2022-09-11T01:39:21.469Z,100.00
2022-09-11T01:41:52.185Z,100.00
2022-09-11T01:44:25.343Z,100.00
2022-09-11T01:46:54.124Z,100.00
2022-09-11T01:49:26.126Z,100.00
2022-09-11T01:51:57.304Z,100.00
2022-09-11T01:54:31.891Z,100.00
2022-09-11T01:57:02.975Z,100.00
2022-09-11T01:59:36.203Z,100.00
2022-09-11T02:02:07.778Z,100.00
2022-09-11T02:04:38.963Z,100.00
2022-09-11T02:07:08.890Z,100.00
2022-09-11T02:09:40.750Z,100.00
2022-09-11T02:12:10.008Z,100.00
2022-09-11T02:14:41.290Z,100.00
2022-09-11T02:17:16.464Z,100.00
2022-09-11T02:19:44.858Z,100.00
2022-09-11T02:22:12.951Z,100.00
2022-09-11T02:24:40.691Z,100.00
2022-09-11T02:27:11.285Z,100.00
2022-09-11T02:29:40.389Z,100.00
2022-09-11T02:32:10.870Z,100.00
2022-09-11T02:34:40.762Z,100.00
2022-09-11T02:37:20.253Z,100.00
2022-09-11T02:40:00.443Z,100.00
2022-09-11T02:42:36.417Z,100.00
2022-09-11T02:45:17.792Z,100.00
2022-09-11T02:47:53.282Z,100.00
2022-09-11T02:50:27.279Z,100.00
2022-09-11T02:52:59.421Z,100.00
2022-09-11T02:55:32.986Z,100.00
2022-09-11T02:58:04.428Z,100.00
2022-09-11T03:00:33.535Z,100.00
2022-09-11T03:03:01.247Z,100.00
2022-09-11T03:05:29.474Z,100.00
2022-09-11T03:07:57.782Z,100.00
2022-09-11T03:10:27.671Z,100.00
2022-09-11T03:12:55.811Z,100.00
2022-09-11T03:15:23.660Z,100.00
2022-09-11T03:17:52.732Z,100.00
2022-09-11T03:20:22.003Z,100.00
2022-09-11T03:22:49.653Z,100.00
2022-09-11T03:25:17.820Z,100.00
2022-09-11T03:27:45.443Z,100.00
2022-09-11T03:30:13.746Z,100.00
2022-09-11T03:32:41.409Z,100.00
2022-09-11T03:35:11.397Z,100.00
2022-09-11T03:37:39.026Z,100.00
2022-09-11T03:40:07.947Z,100.00
2022-09-11T03:42:35.671Z,100.00
2022-09-11T03:45:04.106Z,100.00
2022-09-11T03:47:32.042Z,100.00
2022-09-11T03:49:59.743Z,100.00
2022-09-11T03:52:30.324Z,100.00
2022-09-11T03:54:58.188Z,100.00
2022-09-11T03:57:25.880Z,100.00
2022-09-11T03:59:56.053Z,100.00
2022-09-11T04:02:24.479Z,100.00
2022-09-11T04:04:52.035Z,100.00
2022-09-11T04:07:19.697Z,100.00
2022-09-11T04:09:48.651Z,100.00
2022-09-11T04:12:16.637Z,100.00
2022-09-11T04:14:44.388Z,100.00
2022-09-11T04:17:12.551Z,100.00
2022-09-11T04:19:40.153Z,100.00
2022-09-11T04:22:08.770Z,100.00
2022-09-11T04:24:36.406Z,100.00
2022-09-11T04:27:06.039Z,100.00
2022-09-11T04:29:34.646Z,100.00
2022-09-11T04:32:02.586Z,100.00
2022-09-11T04:34:30.174Z,100.00
2022-09-11T04:36:57.840Z,100.00
2022-09-11T04:39:25.410Z,100.00
2022-09-11T04:41:53.071Z,100.00
2022-09-11T04:44:22.062Z,100.00
2022-09-11T04:46:49.691Z,100.00
2022-09-11T04:49:17.267Z,100.00
2022-09-11T04:51:45.235Z,100.00
2022-09-11T04:54:14.847Z,100.00
2022-09-11T04:56:42.487Z,100.00
2022-09-11T04:59:13.848Z,100.00
2022-09-11T05:01:44.181Z,100.00
2022-09-11T05:04:12.758Z,100.00
2022-09-11T05:06:40.666Z,100.00
2022-09-11T05:09:10.367Z,100.00
2022-09-11T05:11:39.327Z,100.00
2022-09-11T05:14:07.169Z,100.00
2022-09-11T05:16:35.293Z,100.00
2022-09-11T05:19:05.213Z,100.00
2022-09-11T05:21:33.309Z,100.00
2022-09-11T05:24:02.193Z,100.00
2022-09-11T05:26:31.444Z,100.00
2022-09-11T05:29:00.825Z,100.00
2022-09-11T05:31:29.982Z,100.00
2022-09-11T05:33:59.065Z,100.00
2022-09-11T05:36:31.001Z,100.00
2022-09-11T05:38:59.422Z,100.00
2022-09-11T05:41:27.309Z,100.00
2022-09-11T05:43:55.526Z,100.00
2022-09-11T05:46:23.568Z,100.00
2022-09-11T05:48:51.249Z,100.00
2022-09-11T05:51:20.277Z,100.00
2022-09-11T05:53:50.446Z,100.00
2022-09-11T05:56:19.692Z,100.00
2022-09-11T05:58:48.604Z,100.00
2022-09-11T06:01:17.606Z,100.00
2022-09-11T06:03:47.418Z,100.00
2022-09-11T06:06:15.238Z,100.00
2022-09-11T06:08:44.215Z,100.00
2022-09-11T06:11:14.345Z,100.00
2022-09-11T06:13:43.454Z,100.00
2022-09-11T06:16:15.959Z,100.00
2022-09-11T06:18:49.315Z,100.00
2022-09-11T06:21:19.162Z,100.00
2022-09-11T06:23:47.702Z,100.00
2022-09-11T06:26:17.907Z,100.00
2022-09-11T06:28:45.622Z,100.00
2022-09-11T06:31:16.322Z,100.00
2022-09-11T06:33:44.319Z,100.00
2022-09-11T06:36:13.977Z,100.00
2022-09-11T06:38:41.684Z,100.00
2022-09-11T06:41:12.579Z,100.00
2022-09-11T06:43:42.014Z,100.00
2022-09-11T06:46:12.511Z,100.00
2022-09-11T06:48:40.433Z,100.00
2022-09-11T06:51:11.351Z,100.00
2022-09-11T06:53:39.464Z,100.00
2022-09-11T06:56:08.003Z,100.00
2022-09-11T06:58:35.926Z,100.00
2022-09-11T07:01:05.780Z,100.00
2022-09-11T07:03:33.690Z,100.00
2022-09-11T07:06:01.699Z,100.00
2022-09-11T07:08:29.327Z,100.00
2022-09-11T07:11:02.826Z,100.00
2022-09-11T07:13:33.278Z,100.00
2022-09-11T07:16:05.712Z,100.00
2022-09-11T07:18:34.917Z,100.00
2022-09-11T07:21:05.742Z,100.00
2022-09-11T07:23:34.776Z,100.00
2022-09-11T07:26:04.004Z,100.00
2022-09-11T07:28:31.908Z,100.00
2022-09-11T07:31:10.569Z,100.00
2022-09-11T07:33:38.817Z,100.00
2022-09-11T07:36:11.866Z,100.00
2022-09-11T07:38:40.744Z,100.00
2022-09-11T07:41:08.886Z,100.00
2022-09-11T07:43:36.790Z,100.00
2022-09-11T07:46:04.795Z,100.00
2022-09-11T07:48:34.073Z,100.00
2022-09-11T07:51:04.364Z,100.00
2022-09-11T07:53:34.388Z,100.00
2022-09-11T07:56:05.800Z,100.00
2022-09-11T07:58:35.076Z,100.00
2022-09-11T08:01:03.686Z,100.00
2022-09-11T08:03:33.136Z,100.00
2022-09-11T08:06:01.615Z,100.00
2022-09-11T08:08:32.356Z,100.00
2022-09-11T08:11:04.516Z,100.00
2022-09-11T08:13:32.042Z,100.00
2022-09-11T08:15:59.907Z,100.00
2022-09-11T08:18:28.052Z,100.00
2022-09-11T08:21:02.898Z,100.00
2022-09-11T08:23:32.188Z,100.00
2022-09-11T08:26:05.641Z,100.00
2022-09-11T08:28:33.902Z,100.00
2022-09-11T08:31:02.249Z,100.00
2022-09-11T08:33:30.123Z,100.00
2022-09-11T08:36:00.705Z,100.00
2022-09-11T08:38:28.883Z,100.00
2022-09-11T08:40:57.512Z,100.00
2022-09-11T08:43:27.750Z,100.00
2022-09-11T08:45:57.359Z,100.00
2022-09-11T08:48:31.753Z,100.00
2022-09-11T08:51:01.394Z,100.00
2022-09-11T08:53:29.973Z,100.00
2022-09-11T08:56:01.403Z,100.00
2022-09-11T08:58:36.489Z,100.00
2022-09-11T09:01:09.477Z,100.00
2022-09-11T09:03:51.159Z,100.00
2022-09-11T09:06:36.729Z,100.00
2022-09-11T09:09:11.481Z,100.00
2022-09-11T09:11:44.265Z,100.00
2022-09-11T09:14:32.076Z,100.00
2022-09-11T09:17:01.892Z,100.00
2022-09-11T09:19:32.945Z,100.00
2022-09-11T09:22:07.102Z,100.00
2022-09-11T09:24:38.121Z,100.00
2022-09-11T09:27:08.870Z,100.00
2022-09-11T09:29:39.481Z,100.00
2022-09-11T09:32:11.174Z,100.00
2022-09-11T09:34:39.840Z,100.00
2022-09-11T09:37:16.239Z,100.00
2022-09-11T09:39:43.910Z,100.00
2022-09-11T09:42:24.164Z,100.00
2022-09-11T09:45:04.224Z,100.00
2022-09-11T09:47:32.055Z,100.00
2022-09-11T09:49:59.993Z,99.60
2022-09-11T09:52:34.156Z,100.00
2022-09-11T09:55:04.305Z,100.00
2022-09-11T09:57:34.335Z,100.00
2022-09-11T10:00:06.382Z,100.00
2022-09-11T10:02:39.994Z,100.00
2022-09-11T10:05:17.887Z,100.00
2022-09-11T10:07:52.040Z,100.00
2022-09-11T10:10:41.485Z,100.00
2022-09-11T10:13:25.032Z,97.99
2022-09-11T10:15:54.107Z,100.00
2022-09-11T10:18:33.600Z,99.99
2022-09-11T10:21:33.352Z,97.90
2022-09-11T10:24:04.578Z,95.95
2022-09-11T10:26:35.054Z,97.22
2022-09-11T10:29:08.100Z,96.01
2022-09-11T10:31:37.234Z,96.19
2022-09-11T10:34:05.990Z,97.32
2022-09-11T10:36:35.110Z,96.62
2022-09-11T10:39:04.290Z,95.41
2022-09-11T10:41:34.176Z,96.21
2022-09-11T10:44:03.192Z,100.00
2022-09-11T10:46:40.972Z,98.18
2022-09-11T10:49:20.096Z,96.24
2022-09-11T10:52:02.918Z,97.96
2022-09-11T10:54:41.225Z,99.40
2022-09-11T10:57:16.327Z,92.31
2022-09-11T10:59:47.438Z,89.92
2022-09-11T11:02:20.426Z,90.68
2022-09-11T11:04:48.536Z,89.06
2022-09-11T11:07:25.950Z,90.73
2022-09-11T11:10:02.459Z,89.96
2022-09-11T11:12:42.366Z,91.00
2022-09-11T11:15:37.154Z,99.58
2022-09-11T11:18:19.503Z,99.04
2022-09-11T11:20:48.652Z,100.00
2022-09-11T11:23:59.493Z,100.00
2022-09-11T11:26:37.754Z,100.00
2022-09-11T11:29:22.531Z,100.00
2022-09-11T11:32:05.184Z,100.00
2022-09-11T11:34:40.866Z,100.00
2022-09-11T11:37:13.369Z,100.00
2022-09-11T11:39:48.020Z,100.00
2022-09-11T11:42:22.922Z,100.00
2022-09-11T11:44:54.346Z,100.00
2022-09-11T11:47:25.403Z,100.00
2022-09-11T11:49:59.337Z,100.00
2022-09-11T11:52:38.721Z,100.00
2022-09-11T11:55:16.871Z,100.00
2022-09-11T11:57:49.669Z,100.00
2022-09-11T12:00:18.835Z,100.00
2022-09-11T12:02:50.966Z,100.00
2022-09-11T12:05:19.189Z,100.00
2022-09-11T12:07:48.609Z,100.00
2022-09-11T12:10:23.457Z,100.00
2022-09-11T12:12:55.400Z,100.00
2022-09-11T12:15:25.675Z,100.00
2022-09-11T12:18:01.322Z,100.00
2022-09-11T12:20:36.262Z,98.81
2022-09-11T12:23:10.464Z,92.07
2022-09-11T12:25:53.767Z,95.50
2022-09-11T12:28:25.133Z,99.31
2022-09-11T12:31:01.470Z,98.71
2022-09-11T12:33:55.434Z,96.56
2022-09-11T12:36:33.839Z,94.17
2022-09-11T12:39:04.200Z,91.91
2022-09-11T12:41:34.302Z,88.54
2022-09-11T12:44:04.289Z,89.63
2022-09-11T12:47:18.339Z,93.60
2022-09-11T12:49:54.669Z,91.94
2022-09-11T12:52:36.384Z,85.05
2022-09-11T12:55:09.509Z,89.38
2022-09-11T12:57:45.831Z,92.59
2022-09-11T13:00:23.984Z,91.61
2022-09-11T13:02:55.329Z,88.23
2022-09-11T13:05:34.694Z,85.69
2022-09-11T13:08:05.684Z,88.66
2022-09-11T13:10:36.283Z,85.52
2022-09-11T13:13:05.675Z,83.68
2022-09-11T13:15:44.289Z,86.62
2022-09-11T13:18:32.086Z,89.08
2022-09-11T13:21:01.338Z,92.44
2022-09-11T13:23:29.599Z,92.26
2022-09-11T13:25:58.120Z,90.52
2022-09-11T13:28:27.568Z,89.07
2022-09-11T13:30:59.521Z,89.89
2022-09-11T13:33:29.095Z,87.84
2022-09-11T13:35:58.575Z,87.16
2022-09-11T13:38:30.063Z,89.14
2022-09-11T13:40:58.996Z,87.42
2022-09-11T13:43:29.845Z,85.37
2022-09-11T13:46:12.246Z,86.80
2022-09-11T13:48:39.842Z,86.72
2022-09-11T13:51:08.046Z,87.31
2022-09-11T13:53:36.891Z,87.17
2022-09-11T13:56:04.649Z,86.33
2022-09-11T13:58:35.869Z,88.67
2022-09-11T14:01:12.184Z,88.26
2022-09-11T14:03:40.835Z,88.52
2022-09-11T14:06:11.513Z,84.09
2022-09-11T14:08:40.411Z,85.84
2022-09-11T14:11:11.567Z,86.34
2022-09-11T14:13:44.481Z,88.22
2022-09-11T14:16:21.620Z,87.10
2022-09-11T14:18:52.767Z,86.53
2022-09-11T14:21:23.321Z,86.98
2022-09-11T14:23:52.821Z,85.72
2022-09-11T14:26:21.589Z,87.43
2022-09-11T14:29:00.784Z,85.58
2022-09-11T14:31:34.020Z,83.58
2022-09-11T14:34:20.893Z,84.75
2022-09-11T14:36:53.018Z,84.82
2022-09-11T14:39:27.797Z,84.38
2022-09-11T14:41:56.253Z,84.32
2022-09-11T14:44:28.061Z,83.93
2022-09-11T14:46:59.170Z,84.85
2022-09-11T14:49:27.112Z,82.83
2022-09-11T14:51:58.220Z,83.45
2022-09-11T14:54:27.542Z,80.78
2022-09-11T14:56:55.355Z,81.68
2022-09-11T14:59:22.985Z,75.62
2022-09-11T15:01:52.249Z,79.13
2022-09-11T15:04:23.031Z,81.19
2022-09-11T15:06:53.145Z,78.24
2022-09-11T15:09:23.422Z,77.20
2022-09-11T15:11:52.335Z,76.74
2022-09-11T15:14:38.138Z,78.77
2022-09-11T15:17:09.823Z,81.78
2022-09-11T15:19:39.513Z,78.41
2022-09-11T15:22:08.299Z,79.21
2022-09-11T15:24:35.943Z,80.45
2022-09-11T15:27:04.001Z,80.23
2022-09-11T15:29:32.124Z,80.01
2022-09-11T15:32:01.081Z,78.07
2022-09-11T15:34:31.653Z,78.97
2022-09-11T15:37:00.710Z,77.93
2022-09-11T15:39:28.890Z,78.48
2022-09-11T15:41:56.976Z,80.58
2022-09-11T15:44:26.219Z,81.28
2022-09-11T15:46:55.414Z,82.11
2022-09-11T15:49:24.523Z,84.13
2022-09-11T15:51:53.801Z,84.16
2022-09-11T15:54:23.663Z,83.72
2022-09-11T15:56:52.185Z,84.90
2022-09-11T15:59:20.042Z,84.96
2022-09-11T16:01:47.815Z,85.49
2022-09-11T16:04:18.651Z,84.40
2022-09-11T16:06:48.403Z,82.84
2022-09-11T16:09:18.232Z,84.47
2022-09-11T16:11:48.872Z,84.95
2022-09-11T16:14:18.731Z,85.23
2022-09-11T16:16:47.990Z,84.31
2022-09-11T16:19:16.008Z,83.94
2022-09-11T16:21:43.651Z,83.22
2022-09-11T16:24:14.739Z,82.95
2022-09-11T16:26:44.073Z,83.03
2022-09-11T16:29:18.010Z,84.06
2022-09-11T16:31:45.618Z,82.80
2022-09-11T16:34:15.051Z,83.24
2022-09-11T16:36:42.689Z,84.82
2022-09-11T16:39:12.235Z,85.71
2022-09-11T16:41:39.919Z,86.88
2022-09-11T16:44:10.979Z,87.73
2022-09-11T16:46:40.613Z,88.68
2022-09-11T16:49:08.863Z,89.13
2022-09-11T16:51:36.650Z,89.29
2022-09-11T16:54:04.604Z,89.26
2022-09-11T16:56:32.411Z,88.93
2022-09-11T16:59:00.308Z,89.28
2022-09-11T17:01:29.251Z,89.76
2022-09-11T17:03:58.833Z,91.08
2022-09-11T17:06:29.947Z,91.72
2022-09-11T17:09:00.111Z,90.82
2022-09-11T17:11:28.702Z,91.62
2022-09-11T17:13:56.444Z,91.89
2022-09-11T17:16:26.311Z,92.09
2022-09-11T17:18:56.441Z,92.76
2022-09-11T17:21:26.613Z,93.04
2022-09-11T17:23:56.237Z,93.43
2022-09-11T17:26:24.941Z,93.83
2022-09-11T17:28:52.958Z,94.62
2022-09-11T17:31:21.052Z,94.62
2022-09-11T17:33:49.477Z,94.69
2022-09-11T17:36:18.774Z,94.74
2022-09-11T17:38:49.315Z,95.20
2022-09-11T17:41:17.466Z,94.97
2022-09-11T17:43:45.351Z,95.35
2022-09-11T17:46:15.141Z,94.56
2022-09-11T17:48:43.339Z,94.92
2022-09-11T17:51:13.062Z,95.52
2022-09-11T17:53:42.291Z,97.27
2022-09-11T17:56:13.167Z,97.78
2022-09-11T17:58:41.277Z,98.12
2022-09-11T18:01:11.639Z,98.56
2022-09-11T18:03:41.292Z,99.24
2022-09-11T18:06:19.024Z,99.15
2022-09-11T18:08:47.385Z,100.00
2022-09-11T18:11:16.401Z,100.00
2022-09-11T18:13:44.331Z,100.00
2022-09-11T18:16:12.106Z,100.00
2022-09-11T18:18:40.463Z,100.00
2022-09-11T18:21:09.346Z,100.00
2022-09-11T18:23:41.026Z,100.00
2022-09-11T18:26:10.156Z,99.32
2022-09-11T18:28:40.670Z,98.49
2022-09-11T18:31:09.200Z,97.65
2022-09-11T18:33:37.456Z,97.44
2022-09-11T18:36:07.951Z,98.05
2022-09-11T18:38:36.024Z,97.95
2022-09-11T18:41:03.759Z,97.00
2022-09-11T18:43:31.555Z,96.17
2022-09-11T18:46:03.169Z,96.30
2022-09-11T18:48:30.887Z,96.34
2022-09-11T18:51:00.181Z,96.75
2022-09-11T18:53:27.983Z,96.20
2022-09-11T18:56:01.915Z,97.56
2022-09-11T18:58:31.179Z,96.96
2022-09-11T19:01:01.880Z,98.02
2022-09-11T19:03:30.111Z,99.16
2022-09-11T19:06:02.503Z,99.33
2022-09-11T19:08:30.417Z,99.99
2022-09-11T19:10:58.010Z,99.86
2022-09-11T19:13:25.846Z,100.00
2022-09-11T19:15:57.009Z,100.00
2022-09-11T19:18:26.574Z,100.00
2022-09-11T19:20:57.809Z,100.00
2022-09-11T19:23:25.682Z,100.00
2022-09-11T19:25:53.338Z,100.00
2022-09-11T19:28:21.105Z,100.00
2022-09-11T19:30:55.522Z,100.00
2022-09-11T19:33:23.172Z,100.00
2022-09-11T19:35:57.329Z,100.00
2022-09-11T19:38:26.407Z,100.00
2022-09-11T19:40:54.409Z,100.00
2022-09-11T19:43:23.694Z,100.00
2022-09-11T19:45:51.394Z,100.00
2022-09-11T19:48:19.550Z,100.00
2022-09-11T19:50:47.345Z,100.00
2022-09-11T19:53:17.191Z,100.00
2022-09-11T19:55:44.919Z,100.00
2022-09-11T19:58:12.566Z,100.00
2022-09-11T20:00:40.234Z,100.00
2022-09-11T20:03:07.869Z,100.00
2022-09-11T20:05:35.642Z,100.00
2022-09-11T20:08:03.765Z,100.00
2022-09-11T20:10:33.546Z,100.00
2022-09-11T20:13:01.153Z,100.00
2022-09-11T20:15:29.034Z,100.00
2022-09-11T20:17:56.720Z,100.00
2022-09-11T20:20:24.415Z,100.00
2022-09-11T20:22:52.067Z,100.00
2022-09-11T20:25:19.756Z,100.00
2022-09-11T20:27:48.955Z,100.00
2022-09-11T20:30:16.638Z,100.00
2022-09-11T20:32:44.379Z,100.00
2022-09-11T20:35:12.110Z,100.00
2022-09-11T20:37:39.777Z,100.00
2022-09-11T20:40:08.756Z,100.00
2022-09-11T20:42:36.579Z,100.00
2022-09-11T20:45:06.367Z,100.00
2022-09-11T20:47:34.076Z,100.00
2022-09-11T20:50:01.769Z,100.00
2022-09-11T20:52:30.429Z,100.00
2022-09-11T20:54:58.353Z,100.00
2022-09-11T20:57:26.091Z,100.00
2022-09-11T20:59:53.752Z,100.00
2022-09-11T21:02:22.826Z,100.00
2022-09-11T21:04:50.557Z,100.00
2022-09-11T21:07:18.207Z,100.00
2022-09-11T21:09:46.207Z,100.00
2022-09-11T21:12:13.824Z,100.00
2022-09-11T21:14:43.044Z,100.00
2022-09-11T21:17:10.655Z,100.00
2022-09-11T21:19:39.629Z,100.00
2022-09-11T21:22:07.306Z,100.00
2022-09-11T21:24:35.615Z,100.00
2022-09-11T21:27:03.240Z,100.00
2022-09-11T21:29:31.009Z,100.00
2022-09-11T21:31:58.656Z,100.00
2022-09-11T21:34:26.314Z,100.00
2022-09-11T21:36:55.313Z,100.00
2022-09-11T21:39:22.993Z,100.00
2022-09-11T21:41:50.821Z,100.00
2022-09-11T21:44:18.407Z,100.00
2022-09-11T21:46:46.102Z,100.00
2022-09-11T21:49:13.818Z,100.00
2022-09-11T21:51:41.744Z,100.00
2022-09-11T21:54:10.754Z,100.00
2022-09-11T21:56:38.454Z,100.00
2022-09-11T21:59:06.215Z,100.00
2022-09-11T22:01:34.410Z,100.00
2022-09-11T22:04:02.628Z,100.00
2022-09-11T22:06:31.026Z,100.00
2022-09-11T22:08:58.814Z,100.00
2022-09-11T22:11:27.991Z,100.00
2022-09-11T22:13:55.730Z,100.00
2022-09-11T22:16:23.646Z,100.00
2022-09-11T22:18:52.997Z,100.00
2022-09-11T22:21:20.842Z,100.00
2022-09-11T22:23:48.484Z,100.00
2022-09-11T22:26:17.809Z,100.00
2022-09-11T22:28:47.053Z,100.00
2022-09-11T22:31:16.219Z,100.00
2022-09-11T22:33:44.280Z,100.00
2022-09-11T22:36:13.942Z,100.00
2022-09-11T22:38:42.611Z,100.00
2022-09-11T22:41:10.657Z,100.00
2022-09-11T22:43:38.428Z,100.00
2022-09-11T22:46:07.575Z,100.00
2022-09-11T22:48:35.704Z,100.00
2022-09-11T22:51:04.795Z,100.00
2022-09-11T22:53:32.747Z,100.00
2022-09-11T22:56:00.475Z,100.00
2022-09-11T22:58:29.636Z,100.00
2022-09-11T23:00:57.701Z,100.00
2022-09-11T23:03:26.696Z,100.00
2022-09-11T23:06:13.942Z,100.00
2022-09-11T23:08:41.762Z,100.00
2022-09-11T23:11:11.205Z,100.00
2022-09-11T23:13:38.884Z,100.00
2022-09-11T23:16:13.027Z,100.00
2022-09-11T23:18:42.381Z,100.00
2022-09-11T23:21:10.958Z,100.00
2022-09-11T23:23:42.339Z,100.00
2022-09-11T23:26:10.742Z,100.00
2022-09-11T23:28:38.588Z,100.00
2022-09-11T23:31:11.929Z,100.00
2022-09-11T23:33:39.651Z,100.00
2022-09-11T23:36:10.301Z,100.00
2022-09-11T23:38:38.485Z,100.00
2022-09-11T23:41:07.191Z,100.00
2022-09-11T23:43:34.829Z,100.00
2022-09-11T23:46:02.586Z,100.00
2022-09-11T23:48:30.290Z,100.00
2022-09-11T23:50:58.051Z,100.00
2022-09-11T23:53:28.664Z,100.00
2022-09-11T23:55:56.549Z,100.00
2022-09-11T23:58:24.528Z,100.00
